sensor_id;sensor_type;location;lat;lon;timestamp;pressure;altitude;pressure_sealevel;temperature;humidity
68986;BME280;56035;37.534;-122.308;2023-04-08T00:00:52;101448.41;;;15.33;100.00
68986;BME280;56035;37.534;-122.308;2023-04-08T00:03:18;101447.97;;;15.41;100.00
68986;BME280;56035;37.534;-122.308;2023-04-08T00:05:45;101457.75;;;15.27;100.00
68986;BME280;56035;37.534;-122.308;2023-04-08T00:08:11;101455.56;;;15.29;100.00
68986;BME280;56035;37.534;-122.308;2023-04-08T00:10:38;101464.38;;;15.20;100.00
68986;BME280;56035;37.534;-122.308;2023-04-08T00:13:04;101454.28;;;15.14;100.00
68986;BME280;56035;37.534;-122.308;2023-04-08T00:15:30;101468.66;;;15.11;100.00
68986;BME280;56035;37.534;-122.308;2023-04-08T00:17:56;101472.28;;;15.12;100.00
68986;BME280;56035;37.534;-122.308;2023-04-08T00:20:23;101481.34;;;15.07;100.00
68986;BME280;56035;37.534;-122.308;2023-04-08T00:22:49;101473.47;;;14.99;100.00
68986;BME280;56035;37.534;-122.308;2023-04-08T00:25:15;101477.09;;;14.99;100.00
68986;BME280;56035;37.534;-122.308;2023-04-08T00:27:42;101471.66;;;14.88;100.00
68986;BME280;56035;37.534;-122.308;2023-04-08T00:30:08;101471.97;;;14.74;100.00
68986;BME280;56035;37.534;-122.308;2023-04-08T00:32:34;101473.50;;;14.65;100.00
68986;BME280;56035;37.534;-122.308;2023-04-08T00:35:01;101474.06;;;14.67;100.00
68986;BME280;56035;37.534;-122.308;2023-04-08T00:37:27;101479.38;;;14.52;100.00
68986;BME280;56035;37.534;-122.308;2023-04-08T00:39:53;101478.75;;;14.50;100.00
68986;BME280;56035;37.534;-122.308;2023-04-08T00:42:19;101476.63;;;14.23;100.00
68986;BME280;56035;37.534;-122.308;2023-04-08T00:44:46;101488.19;;;14.20;100.00
68986;BME280;56035;37.534;-122.308;2023-04-08T00:47:13;101480.38;;;14.17;100.00
68986;BME280;56035;37.534;-122.308;2023-04-08T00:49:41;101481.38;;;14.11;100.00
68986;BME280;56035;37.534;-122.308;2023-04-08T00:52:08;101486.31;;;14.09;100.00
68986;BME280;56035;37.534;-122.308;2023-04-08T00:54:36;101493.97;;;14.19;100.00
68986;BME280;56035;37.534;-122.308;2023-04-08T00:57:03;101498.78;;;14.23;100.00
68986;BME280;56035;37.534;-122.308;2023-04-08T00:59:32;101494.41;;;14.27;100.00
68986;BME280;56035;37.534;-122.308;2023-04-08T01:02:30;101489.88;;;14.21;100.00
68986;BME280;56035;37.534;-122.308;2023-04-08T01:05:06;101484.66;;;14.25;100.00
68986;BME280;56035;37.534;-122.308;2023-04-08T01:07:38;101493.56;;;14.10;100.00
68986;BME280;56035;37.534;-122.308;2023-04-08T01:10:17;101496.72;;;14.02;100.00
68986;BME280;56035;37.534;-122.308;2023-04-08T01:13:04;101487.75;;;14.12;100.00
68986;BME280;56035;37.534;-122.308;2023-04-08T01:15:32;101496.31;;;14.10;100.00
68986;BME280;56035;37.534;-122.308;2023-04-08T01:18:05;101496.50;;;13.92;100.00
68986;BME280;56035;37.534;-122.308;2023-04-08T01:20:32;101498.47;;;13.79;100.00
68986;BME280;56035;37.534;-122.308;2023-04-08T01:25:35;101506.91;;;13.73;100.00
68986;BME280;56035;37.534;-122.308;2023-04-08T01:28:12;101508.00;;;13.72;100.00
68986;BME280;56035;37.534;-122.308;2023-04-08T01:33:26;101513.56;;;13.60;100.00
68986;BME280;56035;37.534;-122.308;2023-04-08T01:35:54;101517.06;;;13.55;100.00
68986;BME280;56035;37.534;-122.308;2023-04-08T01:38:23;101515.63;;;13.53;100.00
68986;BME280;56035;37.534;-122.308;2023-04-08T01:40:52;101524.31;;;13.45;100.00
68986;BME280;56035;37.534;-122.308;2023-04-08T01:43:39;101525.06;;;13.28;100.00
68986;BME280;56035;37.534;-122.308;2023-04-08T01:46:07;101529.41;;;13.24;100.00
68986;BME280;56035;37.534;-122.308;2023-04-08T01:48:35;101528.88;;;12.92;100.00
68986;BME280;56035;37.534;-122.308;2023-04-08T01:51:04;101521.50;;;12.74;100.00
68986;BME280;56035;37.534;-122.308;2023-04-08T01:53:31;101524.84;;;12.53;100.00
68986;BME280;56035;37.534;-122.308;2023-04-08T01:56:03;101520.72;;;12.44;100.00
68986;BME280;56035;37.534;-122.308;2023-04-08T01:58:45;101528.94;;;12.20;100.00
68986;BME280;56035;37.534;-122.308;2023-04-08T02:01:17;101529.22;;;12.00;100.00
68986;BME280;56035;37.534;-122.308;2023-04-08T02:03:45;101520.06;;;12.00;100.00
68986;BME280;56035;37.534;-122.308;2023-04-08T02:06:12;101530.63;;;11.91;100.00
68986;BME280;56035;37.534;-122.308;2023-04-08T02:08:39;101527.69;;;11.86;100.00
68986;BME280;56035;37.534;-122.308;2023-04-08T02:11:05;101519.47;;;11.79;100.00
68986;BME280;56035;37.534;-122.308;2023-04-08T02:13:31;101524.94;;;11.67;100.00
68986;BME280;56035;37.534;-122.308;2023-04-08T02:16:03;101530.06;;;11.64;100.00
68986;BME280;56035;37.534;-122.308;2023-04-08T02:18:33;101537.44;;;11.52;100.00
68986;BME280;56035;37.534;-122.308;2023-04-08T02:23:34;101547.81;;;11.31;100.00
68986;BME280;56035;37.534;-122.308;2023-04-08T02:26:04;101547.50;;;11.21;100.00
68986;BME280;56035;37.534;-122.308;2023-04-08T02:28:33;101546.28;;;11.17;100.00
68986;BME280;56035;37.534;-122.308;2023-04-08T02:31:01;101544.22;;;11.12;100.00
68986;BME280;56035;37.534;-122.308;2023-04-08T02:33:28;101539.97;;;11.10;100.00
68986;BME280;56035;37.534;-122.308;2023-04-08T02:35:55;101533.00;;;11.07;100.00
68986;BME280;56035;37.534;-122.308;2023-04-08T02:38:22;101536.66;;;11.01;100.00
68986;BME280;56035;37.534;-122.308;2023-04-08T02:40:49;101528.91;;;10.91;100.00
68986;BME280;56035;37.534;-122.308;2023-04-08T02:43:16;101548.88;;;10.87;100.00
68986;BME280;56035;37.534;-122.308;2023-04-08T02:45:43;101544.84;;;10.89;100.00
68986;BME280;56035;37.534;-122.308;2023-04-08T02:48:10;101550.16;;;10.84;100.00
68986;BME280;56035;37.534;-122.308;2023-04-08T02:50:36;101548.16;;;10.73;100.00
68986;BME280;56035;37.534;-122.308;2023-04-08T02:53:02;101549.66;;;10.69;100.00
68986;BME280;56035;37.534;-122.308;2023-04-08T02:55:29;101542.91;;;10.65;100.00
68986;BME280;56035;37.534;-122.308;2023-04-08T02:57:55;101545.06;;;10.63;100.00
68986;BME280;56035;37.534;-122.308;2023-04-08T03:00:21;101546.09;;;10.62;100.00
68986;BME280;56035;37.534;-122.308;2023-04-08T03:02:48;101543.78;;;10.59;100.00
68986;BME280;56035;37.534;-122.308;2023-04-08T03:05:14;101550.81;;;10.54;100.00
68986;BME280;56035;37.534;-122.308;2023-04-08T03:07:41;101557.00;;;10.50;100.00
68986;BME280;56035;37.534;-122.308;2023-04-08T03:10:08;101553.66;;;10.41;100.00
68986;BME280;56035;37.534;-122.308;2023-04-08T03:12:34;101554.94;;;10.39;100.00
68986;BME280;56035;37.534;-122.308;2023-04-08T03:15:00;101559.66;;;10.31;100.00
68986;BME280;56035;37.534;-122.308;2023-04-08T03:17:28;101556.72;;;10.26;100.00
68986;BME280;56035;37.534;-122.308;2023-04-08T03:19:57;101562.22;;;10.20;100.00
68986;BME280;56035;37.534;-122.308;2023-04-08T03:22:23;101559.47;;;10.20;100.00
68986;BME280;56035;37.534;-122.308;2023-04-08T03:24:49;101551.25;;;10.13;100.00
68986;BME280;56035;37.534;-122.308;2023-04-08T03:27:16;101552.97;;;10.14;100.00
68986;BME280;56035;37.534;-122.308;2023-04-08T03:29:42;101554.66;;;10.08;100.00
68986;BME280;56035;37.534;-122.308;2023-04-08T03:32:10;101564.00;;;10.07;100.00
68986;BME280;56035;37.534;-122.308;2023-04-08T03:34:36;101562.28;;;10.06;100.00
68986;BME280;56035;37.534;-122.308;2023-04-08T03:37:02;101581.56;;;10.06;100.00
68986;BME280;56035;37.534;-122.308;2023-04-08T03:39:28;101587.09;;;10.00;100.00
68986;BME280;56035;37.534;-122.308;2023-04-08T03:41:55;101585.66;;;9.97;100.00
68986;BME280;56035;37.534;-122.308;2023-04-08T03:44:21;101581.81;;;9.98;100.00
68986;BME280;56035;37.534;-122.308;2023-04-08T03:46:48;101592.84;;;9.98;100.00
68986;BME280;56035;37.534;-122.308;2023-04-08T03:49:14;101590.53;;;9.95;100.00
68986;BME280;56035;37.534;-122.308;2023-04-08T03:51:40;101597.09;;;9.94;100.00
68986;BME280;56035;37.534;-122.308;2023-04-08T03:54:06;101599.22;;;9.92;100.00
68986;BME280;56035;37.534;-122.308;2023-04-08T03:56:33;101601.13;;;9.92;100.00
68986;BME280;56035;37.534;-122.308;2023-04-08T03:58:59;101611.09;;;9.86;100.00
68986;BME280;56035;37.534;-122.308;2023-04-08T04:01:25;101618.94;;;9.82;100.00
68986;BME280;56035;37.534;-122.308;2023-04-08T04:03:51;101636.09;;;9.78;100.00
68986;BME280;56035;37.534;-122.308;2023-04-08T04:06:17;101639.28;;;9.75;100.00
68986;BME280;56035;37.534;-122.308;2023-04-08T04:08:44;101646.91;;;9.73;100.00
68986;BME280;56035;37.534;-122.308;2023-04-08T04:11:10;101649.66;;;9.73;100.00
68986;BME280;56035;37.534;-122.308;2023-04-08T04:13:36;101651.16;;;9.69;100.00
68986;BME280;56035;37.534;-122.308;2023-04-08T04:16:02;101663.63;;;9.71;100.00
68986;BME280;56035;37.534;-122.308;2023-04-08T04:18:28;101657.09;;;9.66;100.00
68986;BME280;56035;37.534;-122.308;2023-04-08T04:20:55;101659.19;;;9.64;100.00
68986;BME280;56035;37.534;-122.308;2023-04-08T04:23:21;101660.25;;;9.63;100.00
68986;BME280;56035;37.534;-122.308;2023-04-08T04:25:49;101661.31;;;9.61;100.00
68986;BME280;56035;37.534;-122.308;2023-04-08T04:28:15;101675.69;;;9.64;100.00
68986;BME280;56035;37.534;-122.308;2023-04-08T04:30:42;101678.88;;;9.60;100.00
68986;BME280;56035;37.534;-122.308;2023-04-08T04:33:08;101680.38;;;9.56;100.00
68986;BME280;56035;37.534;-122.308;2023-04-08T04:35:34;101685.22;;;9.54;100.00
68986;BME280;56035;37.534;-122.308;2023-04-08T04:38:00;101680.38;;;9.50;100.00
68986;BME280;56035;37.534;-122.308;2023-04-08T04:40:27;101678.03;;;9.47;100.00
68986;BME280;56035;37.534;-122.308;2023-04-08T04:42:53;101686.94;;;9.42;100.00
68986;BME280;56035;37.534;-122.308;2023-04-08T04:45:19;101682.28;;;9.36;100.00
68986;BME280;56035;37.534;-122.308;2023-04-08T04:47:45;101686.53;;;9.38;100.00
68986;BME280;56035;37.534;-122.308;2023-04-08T04:50:11;101698.38;;;9.39;100.00
68986;BME280;56035;37.534;-122.308;2023-04-08T04:52:38;101700.69;;;9.35;100.00
68986;BME280;56035;37.534;-122.308;2023-04-08T04:55:04;101712.31;;;9.37;100.00
68986;BME280;56035;37.534;-122.308;2023-04-08T04:57:30;101709.13;;;9.34;100.00
68986;BME280;56035;37.534;-122.308;2023-04-08T04:59:57;101718.47;;;9.33;100.00
68986;BME280;56035;37.534;-122.308;2023-04-08T05:02:23;101712.31;;;9.31;100.00
68986;BME280;56035;37.534;-122.308;2023-04-08T05:04:49;101711.69;;;9.29;100.00
68986;BME280;56035;37.534;-122.308;2023-04-08T05:07:18;101709.97;;;9.28;100.00
68986;BME280;56035;37.534;-122.308;2023-04-08T05:09:44;101708.72;;;9.30;100.00
68986;BME280;56035;37.534;-122.308;2023-04-08T05:12:10;101706.38;;;9.27;100.00
68986;BME280;56035;37.534;-122.308;2023-04-08T05:14:37;101700.69;;;9.29;100.00
68986;BME280;56035;37.534;-122.308;2023-04-08T05:17:04;101694.75;;;9.25;100.00
68986;BME280;56035;37.534;-122.308;2023-04-08T05:19:31;101683.13;;;9.23;100.00
68986;BME280;56035;37.534;-122.308;2023-04-08T05:21:57;101680.56;;;9.22;100.00
68986;BME280;56035;37.534;-122.308;2023-04-08T05:24:23;101671.47;;;9.21;100.00
68986;BME280;56035;37.534;-122.308;2023-04-08T05:26:49;101673.38;;;9.21;100.00
68986;BME280;56035;37.534;-122.308;2023-04-08T05:29:18;101681.44;;;9.22;100.00
68986;BME280;56035;37.534;-122.308;2023-04-08T05:31:44;101675.31;;;9.20;100.00
68986;BME280;56035;37.534;-122.308;2023-04-08T05:34:10;101674.22;;;9.21;100.00
68986;BME280;56035;37.534;-122.308;2023-04-08T05:36:37;101673.81;;;9.18;100.00
68986;BME280;56035;37.534;-122.308;2023-04-08T05:39:03;101680.16;;;9.18;100.00
68986;BME280;56035;37.534;-122.308;2023-04-08T05:41:29;101675.72;;;9.17;100.00
68986;BME280;56035;37.534;-122.308;2023-04-08T05:43:55;101657.31;;;9.18;100.00
68986;BME280;56035;37.534;-122.308;2023-04-08T05:46:21;101661.31;;;9.15;100.00
68986;BME280;56035;37.534;-122.308;2023-04-08T05:48:47;101661.75;;;9.19;100.00
68986;BME280;56035;37.534;-122.308;2023-04-08T05:51:14;101667.06;;;9.20;100.00
68986;BME280;56035;37.534;-122.308;2023-04-08T05:53:44;101660.91;;;9.18;100.00
68986;BME280;56035;37.534;-122.308;2023-04-08T05:56:11;101680.56;;;9.22;100.00
68986;BME280;56035;37.534;-122.308;2023-04-08T05:58:37;101676.78;;;9.23;100.00
68986;BME280;56035;37.534;-122.308;2023-04-08T06:01:03;101679.53;;;9.23;100.00
68986;BME280;56035;37.534;-122.308;2023-04-08T06:03:31;101674.03;;;9.23;100.00
68986;BME280;56035;37.534;-122.308;2023-04-08T06:05:57;101679.31;;;9.18;100.00
68986;BME280;56035;37.534;-122.308;2023-04-08T06:08:23;101678.25;;;9.19;100.00
68986;BME280;56035;37.534;-122.308;2023-04-08T06:10:50;101677.63;;;9.17;100.00
68986;BME280;56035;37.534;-122.308;2023-04-08T06:13:17;101686.06;;;9.15;100.00
68986;BME280;56035;37.534;-122.308;2023-04-08T06:15:44;101691.97;;;9.12;100.00
68986;BME280;56035;37.534;-122.308;2023-04-08T06:18:11;101687.78;;;9.09;100.00
68986;BME280;56035;37.534;-122.308;2023-04-08T06:20:37;101675.47;;;9.05;100.00
68986;BME280;56035;37.534;-122.308;2023-04-08T06:23:03;101671.47;;;9.01;100.00
68986;BME280;56035;37.534;-122.308;2023-04-08T06:25:29;101673.59;;;8.99;100.00
68986;BME280;56035;37.534;-122.308;2023-04-08T06:27:55;101672.13;;;9.03;100.00
68986;BME280;56035;37.534;-122.308;2023-04-08T06:30:21;101674.22;;;9.01;100.00
68986;BME280;56035;37.534;-122.308;2023-04-08T06:32:47;101667.88;;;9.01;100.00
68986;BME280;56035;37.534;-122.308;2023-04-08T06:35:14;101669.56;;;9.02;100.00
68986;BME280;56035;37.534;-122.308;2023-04-08T06:37:40;101666.63;;;9.03;100.00
68986;BME280;56035;37.534;-122.308;2023-04-08T06:40:07;101663.66;;;9.05;100.00
68986;BME280;56035;37.534;-122.308;2023-04-08T06:42:33;101674.44;;;9.06;100.00
68986;BME280;56035;37.534;-122.308;2023-04-08T06:44:59;101676.97;;;9.08;100.00
68986;BME280;56035;37.534;-122.308;2023-04-08T06:47:25;101683.31;;;9.08;100.00
68986;BME280;56035;37.534;-122.308;2023-04-08T06:49:51;101688.63;;;9.10;100.00
68986;BME280;56035;37.534;-122.308;2023-04-08T06:52:18;101685.03;;;9.09;100.00
68986;BME280;56035;37.534;-122.308;2023-04-08T06:54:45;101688.81;;;9.08;100.00
68986;BME280;56035;37.534;-122.308;2023-04-08T06:57:11;101683.13;;;9.10;100.00
68986;BME280;56035;37.534;-122.308;2023-04-08T06:59:38;101672.97;;;9.10;100.00
68986;BME280;56035;37.534;-122.308;2023-04-08T07:02:04;101671.91;;;9.11;100.00
68986;BME280;56035;37.534;-122.308;2023-04-08T07:04:30;101668.13;;;9.12;100.00
68986;BME280;56035;37.534;-122.308;2023-04-08T07:06:56;101661.75;;;9.12;100.00
68986;BME280;56035;37.534;-122.308;2023-04-08T07:09:23;101657.72;;;9.14;100.00
68986;BME280;56035;37.534;-122.308;2023-04-08T07:11:49;101660.47;;;9.14;100.00
68986;BME280;56035;37.534;-122.308;2023-04-08T07:14:15;101661.56;;;9.13;100.00
68986;BME280;56035;37.534;-122.308;2023-04-08T07:16:41;101665.56;;;9.11;100.00
68986;BME280;56035;37.534;-122.308;2023-04-08T07:19:07;101660.28;;;9.09;100.00
68986;BME280;56035;37.534;-122.308;2023-04-08T07:21:33;101662.81;;;9.11;100.00
68986;BME280;56035;37.534;-122.308;2023-04-08T07:24:00;101665.56;;;9.11;100.00
68986;BME280;56035;37.534;-122.308;2023-04-08T07:26:26;101670.41;;;9.09;100.00
68986;BME280;56035;37.534;-122.308;2023-04-08T07:28:52;101672.31;;;9.08;100.00
68986;BME280;56035;37.534;-122.308;2023-04-08T07:31:19;101684.16;;;9.09;100.00
68986;BME280;56035;37.534;-122.308;2023-04-08T07:33:45;101681.22;;;9.10;100.00
68986;BME280;56035;37.534;-122.308;2023-04-08T07:36:12;101693.06;;;9.11;100.00
68986;BME280;56035;37.534;-122.308;2023-04-08T07:38:39;101686.91;;;9.09;100.00
68986;BME280;56035;37.534;-122.308;2023-04-08T07:41:05;101687.97;;;9.08;100.00
68986;BME280;56035;37.534;-122.308;2023-04-08T07:43:32;101686.28;;;9.07;100.00
68986;BME280;56035;37.534;-122.308;2023-04-08T07:46:07;101685.22;;;9.01;100.00
68986;BME280;56035;37.534;-122.308;2023-04-08T07:48:34;101683.53;;;9.00;100.00
68986;BME280;56035;37.534;-122.308;2023-04-08T07:51:07;101687.75;;;8.96;100.00
68986;BME280;56035;37.534;-122.308;2023-04-08T07:53:34;101692.81;;;8.93;100.00
68986;BME280;56035;37.534;-122.308;2023-04-08T07:56:01;101689.22;;;8.92;100.00
68986;BME280;56035;37.534;-122.308;2023-04-08T07:58:30;101687.53;;;8.91;100.00
68986;BME280;56035;37.534;-122.308;2023-04-08T08:00:57;101689.03;;;8.94;100.00
68986;BME280;56035;37.534;-122.308;2023-04-08T08:03:23;101691.97;;;8.92;100.00
68986;BME280;56035;37.534;-122.308;2023-04-08T08:05:49;101686.88;;;8.89;100.00
68986;BME280;56035;37.534;-122.308;2023-04-08T08:08:16;101687.31;;;8.93;100.00
68986;BME280;56035;37.534;-122.308;2023-04-08T08:10:42;101682.69;;;8.93;100.00
68986;BME280;56035;37.534;-122.308;2023-04-08T08:13:08;101669.78;;;8.94;100.00
68986;BME280;56035;37.534;-122.308;2023-04-08T08:15:35;101675.28;;;8.94;100.00
68986;BME280;56035;37.534;-122.308;2023-04-08T08:18:01;101680.56;;;8.95;100.00
68986;BME280;56035;37.534;-122.308;2023-04-08T08:20:28;101673.78;;;8.98;100.00
68986;BME280;56035;37.534;-122.308;2023-04-08T08:22:54;101680.97;;;8.99;100.00
68986;BME280;56035;37.534;-122.308;2023-04-08T08:25:20;101694.53;;;9.00;100.00
68986;BME280;56035;37.534;-122.308;2023-04-08T08:27:46;101688.81;;;9.02;100.00
68986;BME280;56035;37.534;-122.308;2023-04-08T08:30:13;101682.88;;;9.05;100.00
68986;BME280;56035;37.534;-122.308;2023-04-08T08:32:40;101684.38;;;9.07;100.00
68986;BME280;56035;37.534;-122.308;2023-04-08T08:35:07;101682.28;;;9.09;100.00
68986;BME280;56035;37.534;-122.308;2023-04-08T08:37:53;101680.56;;;9.15;100.00
68986;BME280;56035;37.534;-122.308;2023-04-08T08:40:19;101687.78;;;9.16;100.00
68986;BME280;56035;37.534;-122.308;2023-04-08T08:42:51;101679.72;;;9.14;100.00
68986;BME280;56035;37.534;-122.308;2023-04-08T08:45:21;101674.03;;;9.09;100.00
68986;BME280;56035;37.534;-122.308;2023-04-08T08:47:47;101683.13;;;9.10;100.00
68986;BME280;56035;37.534;-122.308;2023-04-08T08:50:14;101684.38;;;9.07;100.00
68986;BME280;56035;37.534;-122.308;2023-04-08T08:52:47;101678.66;;;9.02;100.00
68986;BME280;56035;37.534;-122.308;2023-04-08T08:55:14;101687.75;;;8.96;100.00
68986;BME280;56035;37.534;-122.308;2023-04-08T08:57:42;101690.94;;;8.93;100.00
68986;BME280;56035;37.534;-122.308;2023-04-08T09:00:10;101686.69;;;8.90;100.00
68986;BME280;56035;37.534;-122.308;2023-04-08T09:02:36;101691.09;;;8.85;100.00
68986;BME280;56035;37.534;-122.308;2023-04-08T09:05:03;101687.50;;;8.78;100.00
68986;BME280;56035;37.534;-122.308;2023-04-08T09:07:31;101689.56;;;8.69;100.00
68986;BME280;56035;37.534;-122.308;2023-04-08T09:10:00;101684.31;;;8.67;100.00
68986;BME280;56035;37.534;-122.308;2023-04-08T09:12:26;101694.03;;;8.63;100.00
68986;BME280;56035;37.534;-122.308;2023-04-08T09:15:09;101694.00;;;8.57;100.00
68986;BME280;56035;37.534;-122.308;2023-04-08T09:17:39;101698.59;;;8.50;100.00
68986;BME280;56035;37.534;-122.308;2023-04-08T09:20:09;101700.28;;;8.44;100.00
68986;BME280;56035;37.534;-122.308;2023-04-08T09:22:59;101697.06;;;8.34;100.00
68986;BME280;56035;37.534;-122.308;2023-04-08T09:25:28;101687.50;;;8.30;100.00
68986;BME280;56035;37.534;-122.308;2023-04-08T09:27:54;101675.91;;;8.28;100.00
68986;BME280;56035;37.534;-122.308;2023-04-08T09:30:25;101673.97;;;8.21;100.00
68986;BME280;56035;37.534;-122.308;2023-04-08T09:33:00;101678.19;;;8.17;100.00
68986;BME280;56035;37.534;-122.308;2023-04-08T09:35:31;101673.50;;;8.11;100.00
68986;BME280;56035;37.534;-122.308;2023-04-08T09:37:57;101675.81;;;8.08;100.00
68986;BME280;56035;37.534;-122.308;2023-04-08T09:40:24;101678.97;;;8.05;100.00
68986;BME280;56035;37.534;-122.308;2023-04-08T09:42:53;101681.00;;;7.96;100.00
68986;BME280;56035;37.534;-122.308;2023-04-08T09:45:21;101698.75;;;8.00;100.00
68986;BME280;56035;37.534;-122.308;2023-04-08T09:50:31;101698.75;;;8.00;100.00
68986;BME280;56035;37.534;-122.308;2023-04-08T09:53:18;101698.56;;;8.02;100.00
68986;BME280;56035;37.534;-122.308;2023-04-08T09:55:49;101689.06;;;8.04;100.00
68986;BME280;56035;37.534;-122.308;2023-04-08T09:58:21;101681.88;;;8.03;100.00
68986;BME280;56035;37.534;-122.308;2023-04-08T10:00:50;101684.63;;;8.03;100.00
68986;BME280;56035;37.534;-122.308;2023-04-08T10:03:36;101682.72;;;8.04;100.00
68986;BME280;56035;37.534;-122.308;2023-04-08T10:06:05;101686.31;;;8.04;100.00
68986;BME280;56035;37.534;-122.308;2023-04-08T10:08:33;101684.63;;;8.03;100.00
68986;BME280;56035;37.534;-122.308;2023-04-08T10:11:00;101673.03;;;8.01;100.00
68986;BME280;56035;37.534;-122.308;2023-04-08T10:13:26;101670.91;;;8.03;100.00
68986;BME280;56035;37.534;-122.308;2023-04-08T10:16:18;101679.16;;;8.03;100.00
68986;BME280;56035;37.534;-122.308;2023-04-08T10:18:49;101679.38;;;8.02;100.00
68986;BME280;56035;37.534;-122.308;2023-04-08T10:21:38;101679.56;;;8.00;100.00
68986;BME280;56035;37.534;-122.308;2023-04-08T10:24:10;101668.13;;;7.96;100.00
68986;BME280;56035;37.534;-122.308;2023-04-08T10:26:44;101675.72;;;7.94;100.00
68986;BME280;56035;37.534;-122.308;2023-04-08T10:31:52;101677.56;;;7.87;100.00
68986;BME280;56035;37.534;-122.308;2023-04-08T10:34:20;101671.66;;;7.84;100.00
68986;BME280;56035;37.534;-122.308;2023-04-08T10:36:47;101670.16;;;7.81;100.00
68986;BME280;56035;37.534;-122.308;2023-04-08T10:39:14;101668.69;;;7.79;100.00
68986;BME280;56035;37.534;-122.308;2023-04-08T10:41:48;101666.13;;;7.77;100.00
68986;BME280;56035;37.534;-122.308;2023-04-08T10:44:19;101686.78;;;7.73;100.00
68986;BME280;56035;37.534;-122.308;2023-04-08T10:46:47;101680.06;;;7.76;100.00
68986;BME280;56035;37.534;-122.308;2023-04-08T10:49:14;101680.91;;;7.76;100.00
68986;BME280;56035;37.534;-122.308;2023-04-08T10:51:41;101681.75;;;7.77;100.00
68986;BME280;56035;37.534;-122.308;2023-04-08T10:54:16;101670.38;;;7.80;100.00
68986;BME280;56035;37.534;-122.308;2023-04-08T10:56:50;101675.63;;;7.81;100.00
68986;BME280;56035;37.534;-122.308;2023-04-08T10:59:27;101681.59;;;7.85;100.00
68986;BME280;56035;37.534;-122.308;2023-04-08T11:01:53;101686.66;;;7.88;100.00
68986;BME280;56035;37.534;-122.308;2023-04-08T11:04:20;101678.00;;;7.91;100.00
68986;BME280;56035;37.534;-122.308;2023-04-08T11:06:48;101676.59;;;7.95;100.00
68986;BME280;56035;37.534;-122.308;2023-04-08T11:09:15;101672.38;;;7.99;100.00
68986;BME280;56035;37.534;-122.308;2023-04-08T11:11:42;101669.22;;;8.02;100.00
68986;BME280;56035;37.534;-122.308;2023-04-08T11:14:09;101680.84;;;8.04;100.00
68986;BME280;56035;37.534;-122.308;2023-04-08T11:16:39;101687.41;;;8.10;100.00
68986;BME280;56035;37.534;-122.308;2023-04-08T11:19:06;101686.16;;;8.12;100.00
68986;BME280;56035;37.534;-122.308;2023-04-08T11:21:36;101695.91;;;8.15;100.00
68986;BME280;56035;37.534;-122.308;2023-04-08T11:24:08;101685.13;;;8.20;100.00
68986;BME280;56035;37.534;-122.308;2023-04-08T11:26:35;101692.97;;;8.23;100.00
68986;BME280;56035;37.534;-122.308;2023-04-08T11:29:02;101689.81;;;8.26;100.00
68986;BME280;56035;37.534;-122.308;2023-04-08T11:31:29;101683.06;;;8.29;100.00
68986;BME280;56035;37.534;-122.308;2023-04-08T11:33:56;101681.59;;;8.33;100.00
68986;BME280;56035;37.534;-122.308;2023-04-08T11:36:23;101678.69;;;8.34;100.00
68986;BME280;56035;37.534;-122.308;2023-04-08T11:38:53;101675.72;;;8.36;100.00
68986;BME280;56035;37.534;-122.308;2023-04-08T11:41:19;101668.31;;;8.36;100.00
68986;BME280;56035;37.534;-122.308;2023-04-08T11:43:55;101665.19;;;8.39;100.00
68986;BME280;56035;37.534;-122.308;2023-04-08T11:46:22;101654.03;;;8.41;100.00
68986;BME280;56035;37.534;-122.308;2023-04-08T11:49:04;101645.31;;;8.37;100.00
68986;BME280;56035;37.534;-122.308;2023-04-08T11:51:31;101634.94;;;8.33;100.00
68986;BME280;56035;37.534;-122.308;2023-04-08T11:54:00;101623.94;;;8.33;100.00
68986;BME280;56035;37.534;-122.308;2023-04-08T11:56:29;101629.44;;;8.33;100.00
68986;BME280;56035;37.534;-122.308;2023-04-08T11:58:58;101617.84;;;8.31;100.00
68986;BME280;56035;37.534;-122.308;2023-04-08T12:01:24;101614.22;;;8.30;100.00
68986;BME280;56035;37.534;-122.308;2023-04-08T12:03:58;101619.28;;;8.27;100.00
68986;BME280;56035;37.534;-122.308;2023-04-08T12:06:26;101630.25;;;8.27;100.00
68986;BME280;56035;37.534;-122.308;2023-04-08T12:08:53;101643.38;;;8.25;100.00
68986;BME280;56035;37.534;-122.308;2023-04-08T12:11:20;101649.47;;;8.27;100.00
68986;BME280;56035;37.534;-122.308;2023-04-08T12:13:46;101647.78;;;8.26;100.00
68986;BME280;56035;37.534;-122.308;2023-04-08T12:16:14;101657.94;;;8.25;100.00
68986;BME280;56035;37.534;-122.308;2023-04-08T12:18:40;101654.53;;;8.23;100.00
68986;BME280;56035;37.534;-122.308;2023-04-08T12:21:07;101665.50;;;8.23;100.00
68986;BME280;56035;37.534;-122.308;2023-04-08T12:23:33;101666.75;;;8.20;100.00
68986;BME280;56035;37.534;-122.308;2023-04-08T12:25:59;101669.50;;;8.20;100.00
68986;BME280;56035;37.534;-122.308;2023-04-08T12:28:25;101663.84;;;8.22;100.00
68986;BME280;56035;37.534;-122.308;2023-04-08T12:30:52;101672.72;;;8.24;100.00
68986;BME280;56035;37.534;-122.308;2023-04-08T12:33:18;101686.22;;;8.26;100.00
68986;BME280;56035;37.534;-122.308;2023-04-08T12:35:44;101694.25;;;8.27;100.00